Belmont, Wisconsin
Current Conditions -  °F | °C
As of 9:35 PM on Wednesday 22 Oct 2014 (Local Time) from KPVB Reporting Station
Clear Clear  
Wind Chill: 40°   Ceiling: Unl
Heat Index: 46°   Visibility: 10mi
Dew Point: 35°   Wind: 12mph
Humidity: 66%   Direction: 120°ESE
Pressure: 30.22"   Gusts: NA
Location:  42.74°N, 90.33°W
Report Text: KPVB 230235Z AUTO 12010KT 10SM CLR 08/02 A3022 RMK AO1 T00750016
Loading
Personal Weather Stations






























Interactive Weather Map
Tropical Storm Tracking
New forecast layout! Learn more

10-Day Weather Forecast

Advertisements
Track Severe Weather on mobile